Hautcharage, Luxembourg
Current Conditions -  °F | °C
As of 2:50 AM on Saturday 20 Dec 2014 (Local Time) from ELLX Reporting Station
NA  
Wind Chill: 31°   Ceiling: NA
Heat Index: 37°   Visibility: 6mi
Dew Point: 36°   Wind: 8mph
Humidity: 93%   Direction: 270°W
Pressure: 30.24"   Gusts: NA
Location:  49.58°N, 5.91°E
Report Text: ELLX 200150Z AUTO 27007KT 9999 NDV 03/02 Q1024
Loading
Personal Weather Stations






























Interactive Weather Map New forecast layout! Learn more

10-Day Weather Forecast

Advertisements
Track Severe Weather on mobile